sensor_id;sensor_type;location;lat;lon;timestamp;P1;durP1;ratioP1;P2;durP2;ratioP2
36137;SDS011;67787;50.074;21.904;2024-01-30T00:02:19;9.60;;;3.80;;
36137;SDS011;67787;50.074;21.904;2024-01-30T00:04:47;7.10;;;3.80;;
36137;SDS011;67787;50.074;21.904;2024-01-30T00:07:15;11.20;;;4.20;;
36137;SDS011;67787;50.074;21.904;2024-01-30T00:09:43;7.10;;;3.60;;
36137;SDS011;67787;50.074;21.904;2024-01-30T00:12:14;8.50;;;3.70;;
36137;SDS011;67787;50.074;21.904;2024-01-30T00:14:42;7.90;;;3.60;;
36137;SDS011;67787;50.074;21.904;2024-01-30T00:17:13;8.00;;;4.00;;
36137;SDS011;67787;50.074;21.904;2024-01-30T00:19:41;7.30;;;3.40;;
36137;SDS011;67787;50.074;21.904;2024-01-30T00:22:09;8.80;;;3.60;;
36137;SDS011;67787;50.074;21.904;2024-01-30T00:24:37;6.10;;;3.70;;
36137;SDS011;67787;50.074;21.904;2024-01-30T00:27:05;6.30;;;3.40;;
36137;SDS011;67787;50.074;21.904;2024-01-30T00:29:33;9.70;;;3.90;;
36137;SDS011;67787;50.074;21.904;2024-01-30T00:32:01;6.80;;;3.00;;
36137;SDS011;67787;50.074;21.904;2024-01-30T00:34:29;7.90;;;3.00;;
36137;SDS011;67787;50.074;21.904;2024-01-30T00:36:57;6.80;;;3.40;;
36137;SDS011;67787;50.074;21.904;2024-01-30T00:39:25;7.40;;;3.30;;
36137;SDS011;67787;50.074;21.904;2024-01-30T00:41:53;4.80;;;3.10;;
36137;SDS011;67787;50.074;21.904;2024-01-30T00:44:21;6.70;;;3.20;;
36137;SDS011;67787;50.074;21.904;2024-01-30T00:46:49;6.80;;;3.50;;
36137;SDS011;67787;50.074;21.904;2024-01-30T00:49:17;6.50;;;3.30;;
36137;SDS011;67787;50.074;21.904;2024-01-30T00:51:46;6.60;;;3.30;;
36137;SDS011;67787;50.074;21.904;2024-01-30T00:54:13;4.70;;;2.80;;
36137;SDS011;67787;50.074;21.904;2024-01-30T00:56:41;5.90;;;3.00;;
36137;SDS011;67787;50.074;21.904;2024-01-30T00:59:10;5.20;;;3.20;;
36137;SDS011;67787;50.074;21.904;2024-01-30T01:01:39;6.00;;;2.80;;
36137;SDS011;67787;50.074;21.904;2024-01-30T01:04:07;5.40;;;3.00;;
36137;SDS011;67787;50.074;21.904;2024-01-30T01:06:35;5.40;;;3.00;;
36137;SDS011;67787;50.074;21.904;2024-01-30T01:09:03;5.50;;;3.00;;
36137;SDS011;67787;50.074;21.904;2024-01-30T01:11:32;6.00;;;3.30;;
36137;SDS011;67787;50.074;21.904;2024-01-30T01:13:59;7.10;;;3.30;;
36137;SDS011;67787;50.074;21.904;2024-01-30T01:16:27;6.20;;;3.10;;
36137;SDS011;67787;50.074;21.904;2024-01-30T01:18:55;5.30;;;3.10;;
36137;SDS011;67787;50.074;21.904;2024-01-30T01:21:24;5.10;;;3.30;;
36137;SDS011;67787;50.074;21.904;2024-01-30T01:23:52;7.20;;;3.80;;
36137;SDS011;67787;50.074;21.904;2024-01-30T01:26:19;6.40;;;3.70;;
36137;SDS011;67787;50.074;21.904;2024-01-30T01:28:47;6.30;;;2.80;;
36137;SDS011;67787;50.074;21.904;2024-01-30T01:31:15;5.80;;;3.00;;
36137;SDS011;67787;50.074;21.904;2024-01-30T01:33:46;6.70;;;3.00;;
36137;SDS011;67787;50.074;21.904;2024-01-30T01:36:14;6.80;;;3.40;;
36137;SDS011;67787;50.074;21.904;2024-01-30T01:38:42;5.80;;;3.10;;
36137;SDS011;67787;50.074;21.904;2024-01-30T01:41:10;5.80;;;3.10;;
36137;SDS011;67787;50.074;21.904;2024-01-30T01:43:38;5.20;;;3.40;;
36137;SDS011;67787;50.074;21.904;2024-01-30T01:46:06;7.60;;;3.30;;
36137;SDS011;67787;50.074;21.904;2024-01-30T01:48:36;5.30;;;3.10;;
36137;SDS011;67787;50.074;21.904;2024-01-30T01:51:07;6.40;;;3.40;;
36137;SDS011;67787;50.074;21.904;2024-01-30T01:53:36;6.70;;;3.30;;
36137;SDS011;67787;50.074;21.904;2024-01-30T01:56:04;6.00;;;3.60;;
36137;SDS011;67787;50.074;21.904;2024-01-30T01:58:33;6.20;;;3.70;;
36137;SDS011;67787;50.074;21.904;2024-01-30T02:01:01;6.10;;;3.00;;
36137;SDS011;67787;50.074;21.904;2024-01-30T02:03:30;6.90;;;3.90;;
36137;SDS011;67787;50.074;21.904;2024-01-30T02:05:58;5.70;;;3.30;;
36137;SDS011;67787;50.074;21.904;2024-01-30T02:08:26;5.90;;;3.00;;
36137;SDS011;67787;50.074;21.904;2024-01-30T02:10:54;8.00;;;3.30;;
36137;SDS011;67787;50.074;21.904;2024-01-30T02:13:23;6.40;;;3.40;;
36137;SDS011;67787;50.074;21.904;2024-01-30T02:15:51;6.20;;;3.50;;
36137;SDS011;67787;50.074;21.904;2024-01-30T02:18:19;8.20;;;3.40;;
36137;SDS011;67787;50.074;21.904;2024-01-30T02:20:51;5.80;;;3.10;;
36137;SDS011;67787;50.074;21.904;2024-01-30T02:23:23;5.90;;;3.30;;
36137;SDS011;67787;50.074;21.904;2024-01-30T02:25:52;4.60;;;2.90;;
36137;SDS011;67787;50.074;21.904;2024-01-30T02:28:21;6.50;;;3.30;;
36137;SDS011;67787;50.074;21.904;2024-01-30T02:30:48;6.60;;;3.40;;
36137;SDS011;67787;50.074;21.904;2024-01-30T02:33:16;5.80;;;3.40;;
36137;SDS011;67787;50.074;21.904;2024-01-30T02:35:44;6.60;;;3.50;;
36137;SDS011;67787;50.074;21.904;2024-01-30T02:38:12;6.00;;;3.10;;
36137;SDS011;67787;50.074;21.904;2024-01-30T02:40:40;7.60;;;4.00;;
36137;SDS011;67787;50.074;21.904;2024-01-30T02:43:08;6.80;;;3.40;;
36137;SDS011;67787;50.074;21.904;2024-01-30T02:45:36;9.20;;;3.90;;
36137;SDS011;67787;50.074;21.904;2024-01-30T02:48:04;6.40;;;3.00;;
36137;SDS011;67787;50.074;21.904;2024-01-30T02:50:32;6.10;;;3.40;;
36137;SDS011;67787;50.074;21.904;2024-01-30T02:53:00;5.20;;;3.30;;
36137;SDS011;67787;50.074;21.904;2024-01-30T02:55:28;7.10;;;4.30;;
36137;SDS011;67787;50.074;21.904;2024-01-30T02:57:56;5.90;;;3.20;;
36137;SDS011;67787;50.074;21.904;2024-01-30T03:00:24;5.40;;;3.00;;
36137;SDS011;67787;50.074;21.904;2024-01-30T03:02:52;6.00;;;3.30;;
36137;SDS011;67787;50.074;21.904;2024-01-30T03:05:20;5.30;;;3.40;;
36137;SDS011;67787;50.074;21.904;2024-01-30T03:07:48;6.90;;;3.10;;
36137;SDS011;67787;50.074;21.904;2024-01-30T03:10:16;5.50;;;3.20;;
36137;SDS011;67787;50.074;21.904;2024-01-30T03:12:44;7.80;;;3.30;;
36137;SDS011;67787;50.074;21.904;2024-01-30T03:15:11;5.70;;;3.20;;
36137;SDS011;67787;50.074;21.904;2024-01-30T03:17:40;7.10;;;3.50;;
36137;SDS011;67787;50.074;21.904;2024-01-30T03:20:08;4.90;;;3.10;;
36137;SDS011;67787;50.074;21.904;2024-01-30T03:22:36;6.10;;;3.50;;
36137;SDS011;67787;50.074;21.904;2024-01-30T03:25:04;6.20;;;3.30;;
36137;SDS011;67787;50.074;21.904;2024-01-30T03:27:34;5.80;;;3.40;;
36137;SDS011;67787;50.074;21.904;2024-01-30T03:30:01;6.70;;;3.80;;
36137;SDS011;67787;50.074;21.904;2024-01-30T03:32:29;6.90;;;3.10;;
36137;SDS011;67787;50.074;21.904;2024-01-30T03:34:57;7.40;;;3.80;;
36137;SDS011;67787;50.074;21.904;2024-01-30T03:37:26;6.20;;;3.60;;
36137;SDS011;67787;50.074;21.904;2024-01-30T03:39:54;6.90;;;3.90;;
36137;SDS011;67787;50.074;21.904;2024-01-30T03:42:22;7.20;;;3.50;;
36137;SDS011;67787;50.074;21.904;2024-01-30T03:44:50;5.20;;;2.80;;
36137;SDS011;67787;50.074;21.904;2024-01-30T03:47:21;8.50;;;3.60;;
36137;SDS011;67787;50.074;21.904;2024-01-30T03:49:49;5.90;;;3.50;;
36137;SDS011;67787;50.074;21.904;2024-01-30T03:52:17;7.40;;;3.50;;
36137;SDS011;67787;50.074;21.904;2024-01-30T03:54:45;9.80;;;3.80;;
36137;SDS011;67787;50.074;21.904;2024-01-30T03:57:12;7.40;;;3.80;;
36137;SDS011;67787;50.074;21.904;2024-01-30T03:59:43;5.30;;;3.30;;
36137;SDS011;67787;50.074;21.904;2024-01-30T04:02:11;5.30;;;3.10;;
36137;SDS011;67787;50.074;21.904;2024-01-30T04:04:40;7.70;;;3.80;;
36137;SDS011;67787;50.074;21.904;2024-01-30T04:07:08;6.10;;;2.90;;
36137;SDS011;67787;50.074;21.904;2024-01-30T04:09:36;6.40;;;3.10;;
36137;SDS011;67787;50.074;21.904;2024-01-30T04:12:06;6.60;;;3.90;;
36137;SDS011;67787;50.074;21.904;2024-01-30T04:14:34;8.40;;;4.90;;
36137;SDS011;67787;50.074;21.904;2024-01-30T04:17:03;7.20;;;4.50;;
36137;SDS011;67787;50.074;21.904;2024-01-30T04:19:31;9.10;;;4.40;;
36137;SDS011;67787;50.074;21.904;2024-01-30T04:21:58;8.20;;;4.30;;
36137;SDS011;67787;50.074;21.904;2024-01-30T04:24:26;10.10;;;4.10;;
36137;SDS011;67787;50.074;21.904;2024-01-30T04:26:57;9.20;;;4.20;;
36137;SDS011;67787;50.074;21.904;2024-01-30T04:29:25;7.90;;;4.60;;
36137;SDS011;67787;50.074;21.904;2024-01-30T04:31:53;8.90;;;4.70;;
36137;SDS011;67787;50.074;21.904;2024-01-30T04:34:21;6.40;;;3.90;;
36137;SDS011;67787;50.074;21.904;2024-01-30T04:36:49;8.70;;;4.80;;
36137;SDS011;67787;50.074;21.904;2024-01-30T04:39:16;8.60;;;5.20;;
36137;SDS011;67787;50.074;21.904;2024-01-30T04:41:45;12.70;;;5.30;;
36137;SDS011;67787;50.074;21.904;2024-01-30T04:44:12;8.60;;;5.40;;
36137;SDS011;67787;50.074;21.904;2024-01-30T04:46:40;8.80;;;4.40;;
36137;SDS011;67787;50.074;21.904;2024-01-30T04:49:08;9.20;;;4.20;;
36137;SDS011;67787;50.074;21.904;2024-01-30T04:51:36;6.60;;;3.90;;
36137;SDS011;67787;50.074;21.904;2024-01-30T04:54:04;10.90;;;4.80;;
36137;SDS011;67787;50.074;21.904;2024-01-30T04:56:32;8.50;;;4.70;;
36137;SDS011;67787;50.074;21.904;2024-01-30T04:59:00;8.00;;;4.50;;
36137;SDS011;67787;50.074;21.904;2024-01-30T05:01:28;9.90;;;5.10;;
36137;SDS011;67787;50.074;21.904;2024-01-30T05:03:56;8.20;;;4.00;;
36137;SDS011;67787;50.074;21.904;2024-01-30T05:06:26;7.90;;;5.20;;
36137;SDS011;67787;50.074;21.904;2024-01-30T05:08:55;6.60;;;4.00;;
36137;SDS011;67787;50.074;21.904;2024-01-30T05:11:23;9.00;;;5.30;;
36137;SDS011;67787;50.074;21.904;2024-01-30T05:13:51;10.80;;;5.30;;
36137;SDS011;67787;50.074;21.904;2024-01-30T05:16:19;8.80;;;4.80;;
36137;SDS011;67787;50.074;21.904;2024-01-30T05:18:47;6.60;;;3.60;;
36137;SDS011;67787;50.074;21.904;2024-01-30T05:21:15;6.20;;;3.70;;
36137;SDS011;67787;50.074;21.904;2024-01-30T05:23:43;7.30;;;3.30;;
36137;SDS011;67787;50.074;21.904;2024-01-30T05:26:10;9.20;;;3.80;;
36137;SDS011;67787;50.074;21.904;2024-01-30T05:28:38;7.80;;;4.30;;
36137;SDS011;67787;50.074;21.904;2024-01-30T05:31:06;9.30;;;4.70;;
36137;SDS011;67787;50.074;21.904;2024-01-30T05:33:34;7.90;;;4.90;;
36137;SDS011;67787;50.074;21.904;2024-01-30T05:36:02;8.10;;;3.60;;
36137;SDS011;67787;50.074;21.904;2024-01-30T05:38:31;6.60;;;3.60;;
36137;SDS011;67787;50.074;21.904;2024-01-30T05:40:59;9.00;;;4.70;;
36137;SDS011;67787;50.074;21.904;2024-01-30T05:43:27;10.20;;;4.40;;
36137;SDS011;67787;50.074;21.904;2024-01-30T05:45:55;9.50;;;4.80;;
36137;SDS011;67787;50.074;21.904;2024-01-30T05:48:23;7.60;;;3.90;;
36137;SDS011;67787;50.074;21.904;2024-01-30T05:50:51;9.20;;;4.50;;
36137;SDS011;67787;50.074;21.904;2024-01-30T05:53:19;7.40;;;3.70;;
36137;SDS011;67787;50.074;21.904;2024-01-30T05:55:47;8.60;;;3.90;;
36137;SDS011;67787;50.074;21.904;2024-01-30T05:58:15;7.30;;;4.10;;
36137;SDS011;67787;50.074;21.904;2024-01-30T06:00:42;8.20;;;4.00;;
36137;SDS011;67787;50.074;21.904;2024-01-30T06:03:11;11.10;;;4.40;;
36137;SDS011;67787;50.074;21.904;2024-01-30T06:05:39;6.70;;;3.60;;
36137;SDS011;67787;50.074;21.904;2024-01-30T06:08:07;5.70;;;3.70;;
36137;SDS011;67787;50.074;21.904;2024-01-30T06:10:37;7.00;;;3.90;;
36137;SDS011;67787;50.074;21.904;2024-01-30T06:13:05;6.70;;;3.40;;
36137;SDS011;67787;50.074;21.904;2024-01-30T06:15:37;5.90;;;3.60;;
36137;SDS011;67787;50.074;21.904;2024-01-30T06:18:07;6.80;;;4.10;;
36137;SDS011;67787;50.074;21.904;2024-01-30T06:20:38;8.50;;;4.00;;
36137;SDS011;67787;50.074;21.904;2024-01-30T06:23:08;5.60;;;3.50;;
36137;SDS011;67787;50.074;21.904;2024-01-30T06:25:35;8.20;;;4.40;;
36137;SDS011;67787;50.074;21.904;2024-01-30T06:28:03;6.90;;;3.40;;
36137;SDS011;67787;50.074;21.904;2024-01-30T06:30:32;8.40;;;4.60;;
36137;SDS011;67787;50.074;21.904;2024-01-30T06:32:59;8.40;;;3.80;;
36137;SDS011;67787;50.074;21.904;2024-01-30T06:35:27;9.30;;;4.70;;
36137;SDS011;67787;50.074;21.904;2024-01-30T06:37:56;7.50;;;3.70;;
36137;SDS011;67787;50.074;21.904;2024-01-30T06:40:24;6.50;;;3.50;;
36137;SDS011;67787;50.074;21.904;2024-01-30T06:42:52;6.50;;;4.10;;
36137;SDS011;67787;50.074;21.904;2024-01-30T06:45:20;6.70;;;3.60;;
36137;SDS011;67787;50.074;21.904;2024-01-30T06:47:48;6.30;;;3.50;;
36137;SDS011;67787;50.074;21.904;2024-01-30T06:50:16;7.30;;;3.60;;
36137;SDS011;67787;50.074;21.904;2024-01-30T06:52:44;6.00;;;3.70;;
36137;SDS011;67787;50.074;21.904;2024-01-30T06:55:11;7.60;;;4.10;;
36137;SDS011;67787;50.074;21.904;2024-01-30T06:57:39;4.60;;;3.10;;
36137;SDS011;67787;50.074;21.904;2024-01-30T07:00:07;5.90;;;3.30;;
36137;SDS011;67787;50.074;21.904;2024-01-30T07:02:35;6.30;;;4.10;;
36137;SDS011;67787;50.074;21.904;2024-01-30T07:05:04;8.30;;;3.80;;
36137;SDS011;67787;50.074;21.904;2024-01-30T07:07:32;7.70;;;3.90;;
36137;SDS011;67787;50.074;21.904;2024-01-30T07:10:00;7.40;;;4.00;;
36137;SDS011;67787;50.074;21.904;2024-01-30T07:12:30;8.30;;;3.70;;
36137;SDS011;67787;50.074;21.904;2024-01-30T07:14:58;6.80;;;3.90;;
36137;SDS011;67787;50.074;21.904;2024-01-30T07:17:27;8.90;;;4.20;;
36137;SDS011;67787;50.074;21.904;2024-01-30T07:19:55;6.10;;;3.00;;
36137;SDS011;67787;50.074;21.904;2024-01-30T07:22:23;8.60;;;4.30;;
36137;SDS011;67787;50.074;21.904;2024-01-30T07:24:51;7.00;;;3.70;;
36137;SDS011;67787;50.074;21.904;2024-01-30T07:27:19;9.00;;;4.10;;
36137;SDS011;67787;50.074;21.904;2024-01-30T07:29:49;7.80;;;4.10;;
36137;SDS011;67787;50.074;21.904;2024-01-30T07:32:17;6.40;;;3.60;;
36137;SDS011;67787;50.074;21.904;2024-01-30T07:34:46;7.10;;;4.00;;
36137;SDS011;67787;50.074;21.904;2024-01-30T07:37:32;8.00;;;4.00;;
36137;SDS011;67787;50.074;21.904;2024-01-30T07:40:01;8.40;;;3.40;;
36137;SDS011;67787;50.074;21.904;2024-01-30T07:42:30;8.30;;;4.00;;
36137;SDS011;67787;50.074;21.904;2024-01-30T07:44:58;8.50;;;4.80;;
36137;SDS011;67787;50.074;21.904;2024-01-30T07:47:28;7.40;;;3.90;;
36137;SDS011;67787;50.074;21.904;2024-01-30T07:49:55;7.70;;;4.00;;
36137;SDS011;67787;50.074;21.904;2024-01-30T07:52:23;6.60;;;3.80;;
36137;SDS011;67787;50.074;21.904;2024-01-30T07:54:51;6.70;;;3.90;;
36137;SDS011;67787;50.074;21.904;2024-01-30T07:57:20;6.60;;;3.50;;
36137;SDS011;67787;50.074;21.904;2024-01-30T07:59:47;6.60;;;3.80;;
36137;SDS011;67787;50.074;21.904;2024-01-30T08:02:15;7.20;;;3.30;;
36137;SDS011;67787;50.074;21.904;2024-01-30T08:04:43;8.00;;;3.80;;
36137;SDS011;67787;50.074;21.904;2024-01-30T08:07:11;7.40;;;4.20;;
36137;SDS011;67787;50.074;21.904;2024-01-30T08:09:39;6.80;;;3.60;;
36137;SDS011;67787;50.074;21.904;2024-01-30T08:12:07;6.10;;;3.40;;
36137;SDS011;67787;50.074;21.904;2024-01-30T08:14:35;7.60;;;3.90;;
36137;SDS011;67787;50.074;21.904;2024-01-30T08:17:03;8.80;;;4.20;;
36137;SDS011;67787;50.074;21.904;2024-01-30T08:19:31;6.10;;;3.40;;
36137;SDS011;67787;50.074;21.904;2024-01-30T08:21:58;6.60;;;3.90;;
36137;SDS011;67787;50.074;21.904;2024-01-30T08:24:27;6.90;;;4.00;;
36137;SDS011;67787;50.074;21.904;2024-01-30T08:26:54;7.90;;;3.70;;
36137;SDS011;67787;50.074;21.904;2024-01-30T08:29:22;6.30;;;3.40;;
36137;SDS011;67787;50.074;21.904;2024-01-30T08:31:50;7.80;;;4.40;;
36137;SDS011;67787;50.074;21.904;2024-01-30T08:34:18;7.90;;;3.60;;
36137;SDS011;67787;50.074;21.904;2024-01-30T08:36:46;8.10;;;4.10;;
36137;SDS011;67787;50.074;21.904;2024-01-30T08:39:14;6.40;;;4.10;;
36137;SDS011;67787;50.074;21.904;2024-01-30T08:41:42;14.00;;;5.60;;
36137;SDS011;67787;50.074;21.904;2024-01-30T08:44:10;12.30;;;4.80;;
36137;SDS011;67787;50.074;21.904;2024-01-30T08:46:38;9.20;;;4.90;;
36137;SDS011;67787;50.074;21.904;2024-01-30T08:49:06;9.00;;;4.30;;
36137;SDS011;67787;50.074;21.904;2024-01-30T08:51:35;9.70;;;4.00;;
36137;SDS011;67787;50.074;21.904;2024-01-30T08:54:03;6.90;;;4.10;;
36137;SDS011;67787;50.074;21.904;2024-01-30T08:56:31;7.20;;;4.10;;
36137;SDS011;67787;50.074;21.904;2024-01-30T08:58:59;8.60;;;4.30;;
36137;SDS011;67787;50.074;21.904;2024-01-30T09:01:27;6.70;;;3.60;;
36137;SDS011;67787;50.074;21.904;2024-01-30T09:03:55;9.60;;;3.80;;
36137;SDS011;67787;50.074;21.904;2024-01-30T09:06:23;8.20;;;4.10;;
36137;SDS011;67787;50.074;21.904;2024-01-30T09:08:54;7.60;;;4.10;;
36137;SDS011;67787;50.074;21.904;2024-01-30T09:11:22;6.20;;;3.40;;
36137;SDS011;67787;50.074;21.904;2024-01-30T09:13:49;8.80;;;4.30;;
36137;SDS011;67787;50.074;21.904;2024-01-30T09:16:17;7.70;;;4.60;;
36137;SDS011;67787;50.074;21.904;2024-01-30T09:18:45;8.60;;;4.40;;
36137;SDS011;67787;50.074;21.904;2024-01-30T09:21:13;7.80;;;3.90;;
36137;SDS011;67787;50.074;21.904;2024-01-30T09:23:41;9.30;;;4.50;;
36137;SDS011;67787;50.074;21.904;2024-01-30T09:26:09;7.90;;;3.70;;
36137;SDS011;67787;50.074;21.904;2024-01-30T09:28:38;10.10;;;4.70;;
36137;SDS011;67787;50.074;21.904;2024-01-30T09:31:09;8.00;;;4.50;;
36137;SDS011;67787;50.074;21.904;2024-01-30T09:33:38;8.70;;;4.80;;
36137;SDS011;67787;50.074;21.904;2024-01-30T09:36:06;8.20;;;4.50;;
36137;SDS011;67787;50.074;21.904;2024-01-30T09:38:35;8.80;;;4.20;;
36137;SDS011;67787;50.074;21.904;2024-01-30T09:41:03;10.00;;;5.30;;
36137;SDS011;67787;50.074;21.904;2024-01-30T09:43:36;9.30;;;4.90;;
36137;SDS011;67787;50.074;21.904;2024-01-30T09:46:07;10.60;;;5.10;;
36137;SDS011;67787;50.074;21.904;2024-01-30T09:48:44;9.30;;;4.70;;
36137;SDS011;67787;50.074;21.904;2024-01-30T09:51:14;11.90;;;4.70;;
36137;SDS011;67787;50.074;21.904;2024-01-30T09:53:43;7.70;;;4.00;;
36137;SDS011;67787;50.074;21.904;2024-01-30T09:56:12;7.00;;;3.80;;
36137;SDS011;67787;50.074;21.904;2024-01-30T09:58:41;8.80;;;3.40;;
36137;SDS011;67787;50.074;21.904;2024-01-30T10:01:09;7.40;;;4.70;;
36137;SDS011;67787;50.074;21.904;2024-01-30T10:03:38;8.30;;;4.10;;
36137;SDS011;67787;50.074;21.904;2024-01-30T10:06:06;17.30;;;4.70;;
36137;SDS011;67787;50.074;21.904;2024-01-30T10:08:35;10.50;;;4.90;;
36137;SDS011;67787;50.074;21.904;2024-01-30T10:11:03;10.90;;;5.00;;
36137;SDS011;67787;50.074;21.904;2024-01-30T10:13:31;9.80;;;5.30;;
36137;SDS011;67787;50.074;21.904;2024-01-30T10:15:59;11.60;;;5.40;;
36137;SDS011;67787;50.074;21.904;2024-01-30T10:18:29;10.50;;;4.10;;
36137;SDS011;67787;50.074;21.904;2024-01-30T10:20:58;8.40;;;4.50;;
36137;SDS011;67787;50.074;21.904;2024-01-30T10:23:26;6.30;;;3.90;;
36137;SDS011;67787;50.074;21.904;2024-01-30T10:26:00;8.80;;;4.70;;
36137;SDS011;67787;50.074;21.904;2024-01-30T10:28:31;7.50;;;4.50;;
36137;SDS011;67787;50.074;21.904;2024-01-30T10:30:59;9.30;;;4.00;;
36137;SDS011;67787;50.074;21.904;2024-01-30T10:33:32;7.20;;;4.40;;
36137;SDS011;67787;50.074;21.904;2024-01-30T10:36:02;7.70;;;4.50;;
36137;SDS011;67787;50.074;21.904;2024-01-30T10:38:33;7.90;;;4.00;;
36137;SDS011;67787;50.074;21.904;2024-01-30T10:41:02;11.70;;;5.80;;
36137;SDS011;67787;50.074;21.904;2024-01-30T10:43:32;16.30;;;6.20;;
36137;SDS011;67787;50.074;21.904;2024-01-30T10:46:06;14.50;;;5.90;;
36137;SDS011;67787;50.074;21.904;2024-01-30T10:48:43;12.90;;;5.30;;
36137;SDS011;67787;50.074;21.904;2024-01-30T10:51:16;8.60;;;4.60;;
36137;SDS011;67787;50.074;21.904;2024-01-30T10:53:46;8.50;;;4.30;;
36137;SDS011;67787;50.074;21.904;2024-01-30T10:56:17;8.40;;;5.00;;
36137;SDS011;67787;50.074;21.904;2024-01-30T10:58:51;8.30;;;4.60;;
36137;SDS011;67787;50.074;21.904;2024-01-30T11:06:03;8.40;;;4.40;;
36137;SDS011;67787;50.074;21.904;2024-01-30T11:08:32;8.30;;;4.20;;
36137;SDS011;67787;50.074;21.904;2024-01-30T11:11:00;9.00;;;4.30;;
36137;SDS011;67787;50.074;21.904;2024-01-30T11:13:31;9.00;;;5.20;;
36137;SDS011;67787;50.074;21.904;2024-01-30T11:16:03;8.20;;;5.40;;
36137;SDS011;67787;50.074;21.904;2024-01-30T11:21:00;8.30;;;4.70;;
36137;SDS011;67787;50.074;21.904;2024-01-30T11:23:30;7.80;;;4.40;;
36137;SDS011;67787;50.074;21.904;2024-01-30T11:26:01;9.80;;;4.70;;
36137;SDS011;67787;50.074;21.904;2024-01-30T11:28:32;10.50;;;4.90;;
36137;SDS011;67787;50.074;21.904;2024-01-30T11:31:03;10.00;;;4.90;;
36137;SDS011;67787;50.074;21.904;2024-01-30T11:33:32;10.60;;;5.80;;
36137;SDS011;67787;50.074;21.904;2024-01-30T11:36:01;11.20;;;5.30;;
36137;SDS011;67787;50.074;21.904;2024-01-30T11:38:30;8.10;;;4.50;;
36137;SDS011;67787;50.074;21.904;2024-01-30T11:40:58;8.40;;;4.40;;
36137;SDS011;67787;50.074;21.904;2024-01-30T11:43:27;7.90;;;4.30;;
36137;SDS011;67787;50.074;21.904;2024-01-30T11:45:55;9.70;;;5.10;;
36137;SDS011;67787;50.074;21.904;2024-01-30T11:48:23;11.00;;;5.90;;
36137;SDS011;67787;50.074;21.904;2024-01-30T11:50:51;10.00;;;4.80;;
36137;SDS011;67787;50.074;21.904;2024-01-30T11:53:20;10.60;;;5.80;;
36137;SDS011;67787;50.074;21.904;2024-01-30T11:55:51;9.30;;;5.40;;
36137;SDS011;67787;50.074;21.904;2024-01-30T11:58:18;7.70;;;4.70;;
36137;SDS011;67787;50.074;21.904;2024-01-30T12:00:56;6.90;;;4.10;;
36137;SDS011;67787;50.074;21.904;2024-01-30T12:03:24;8.60;;;4.90;;
36137;SDS011;67787;50.074;21.904;2024-01-30T12:05:56;9.30;;;4.70;;
36137;SDS011;67787;50.074;21.904;2024-01-30T12:08:28;9.50;;;5.10;;
36137;SDS011;67787;50.074;21.904;2024-01-30T12:10:56;8.20;;;4.00;;
36137;SDS011;67787;50.074;21.904;2024-01-30T12:13:26;8.40;;;3.90;;
36137;SDS011;67787;50.074;21.904;2024-01-30T12:16:00;8.70;;;4.90;;
36137;SDS011;67787;50.074;21.904;2024-01-30T12:18:28;13.40;;;6.80;;
36137;SDS011;67787;50.074;21.904;2024-01-30T12:20:57;7.80;;;4.90;;
36137;SDS011;67787;50.074;21.904;2024-01-30T12:23:28;7.00;;;4.10;;
36137;SDS011;67787;50.074;21.904;2024-01-30T12:25:57;7.30;;;4.80;;
36137;SDS011;67787;50.074;21.904;2024-01-30T12:28:25;8.90;;;4.90;;
36137;SDS011;67787;50.074;21.904;2024-01-30T12:30:56;9.40;;;4.60;;
36137;SDS011;67787;50.074;21.904;2024-01-30T12:33:29;9.80;;;4.90;;
36137;SDS011;67787;50.074;21.904;2024-01-30T12:36:01;7.80;;;4.80;;
36137;SDS011;67787;50.074;21.904;2024-01-30T12:38:30;7.80;;;4.50;;
36137;SDS011;67787;50.074;21.904;2024-01-30T12:40:59;8.50;;;4.70;;
36137;SDS011;67787;50.074;21.904;2024-01-30T12:43:29;7.20;;;4.00;;
36137;SDS011;67787;50.074;21.904;2024-01-30T12:46:05;9.10;;;4.60;;
36137;SDS011;67787;50.074;21.904;2024-01-30T12:48:34;10.20;;;5.60;;
36137;SDS011;67787;50.074;21.904;2024-01-30T12:51:02;8.30;;;5.00;;
36137;SDS011;67787;50.074;21.904;2024-01-30T12:53:30;8.90;;;4.90;;
36137;SDS011;67787;50.074;21.904;2024-01-30T12:55:58;9.30;;;5.50;;
36137;SDS011;67787;50.074;21.904;2024-01-30T12:58:26;11.00;;;5.90;;
36137;SDS011;67787;50.074;21.904;2024-01-30T13:00:54;10.50;;;5.80;;
36137;SDS011;67787;50.074;21.904;2024-01-30T13:03:22;9.80;;;5.50;;
36137;SDS011;67787;50.074;21.904;2024-01-30T13:05:50;10.40;;;5.30;;
36137;SDS011;67787;50.074;21.904;2024-01-30T13:08:18;9.50;;;5.00;;
36137;SDS011;67787;50.074;21.904;2024-01-30T13:10:47;8.90;;;4.70;;
36137;SDS011;67787;50.074;21.904;2024-01-30T13:13:17;9.90;;;4.80;;
36137;SDS011;67787;50.074;21.904;2024-01-30T13:15:47;10.40;;;4.60;;
36137;SDS011;67787;50.074;21.904;2024-01-30T13:18:16;9.40;;;5.50;;
36137;SDS011;67787;50.074;21.904;2024-01-30T13:20:44;11.80;;;5.40;;
36137;SDS011;67787;50.074;21.904;2024-01-30T13:23:12;11.20;;;6.20;;
36137;SDS011;67787;50.074;21.904;2024-01-30T13:25:40;9.10;;;5.40;;
36137;SDS011;67787;50.074;21.904;2024-01-30T13:28:08;10.90;;;5.80;;
36137;SDS011;67787;50.074;21.904;2024-01-30T13:30:36;9.00;;;5.00;;
36137;SDS011;67787;50.074;21.904;2024-01-30T13:33:04;8.10;;;4.30;;
36137;SDS011;67787;50.074;21.904;2024-01-30T13:35:32;12.90;;;7.50;;
36137;SDS011;67787;50.074;21.904;2024-01-30T13:38:00;13.20;;;6.20;;
36137;SDS011;67787;50.074;21.904;2024-01-30T13:40:27;12.30;;;7.00;;
36137;SDS011;67787;50.074;21.904;2024-01-30T13:42:55;11.40;;;6.20;;
36137;SDS011;67787;50.074;21.904;2024-01-30T13:45:25;9.60;;;5.60;;
36137;SDS011;67787;50.074;21.904;2024-01-30T13:47:53;8.70;;;5.50;;
36137;SDS011;67787;50.074;21.904;2024-01-30T13:50:21;11.90;;;5.90;;
36137;SDS011;67787;50.074;21.904;2024-01-30T13:52:49;9.60;;;5.10;;
36137;SDS011;67787;50.074;21.904;2024-01-30T13:55:17;10.40;;;5.30;;
36137;SDS011;67787;50.074;21.904;2024-01-30T13:57:45;9.00;;;5.50;;
36137;SDS011;67787;50.074;21.904;2024-01-30T14:00:17;11.40;;;5.50;;
36137;SDS011;67787;50.074;21.904;2024-01-30T14:02:45;10.60;;;5.40;;
36137;SDS011;67787;50.074;21.904;2024-01-30T14:05:13;12.00;;;5.50;;
36137;SDS011;67787;50.074;21.904;2024-01-30T14:07:42;11.30;;;6.20;;
36137;SDS011;67787;50.074;21.904;2024-01-30T14:10:11;10.00;;;5.20;;
36137;SDS011;67787;50.074;21.904;2024-01-30T14:12:42;8.20;;;5.30;;
36137;SDS011;67787;50.074;21.904;2024-01-30T14:15:15;10.20;;;5.60;;
36137;SDS011;67787;50.074;21.904;2024-01-30T14:17:55;9.60;;;5.30;;
36137;SDS011;67787;50.074;21.904;2024-01-30T14:20:25;9.70;;;5.60;;
36137;SDS011;67787;50.074;21.904;2024-01-30T14:22:54;8.10;;;5.30;;
36137;SDS011;67787;50.074;21.904;2024-01-30T14:25:24;10.20;;;5.30;;
36137;SDS011;67787;50.074;21.904;2024-01-30T14:27:52;8.40;;;4.30;;
36137;SDS011;67787;50.074;21.904;2024-01-30T14:30:20;11.00;;;5.60;;
36137;SDS011;67787;50.074;21.904;2024-01-30T14:32:48;13.50;;;6.40;;
36137;SDS011;67787;50.074;21.904;2024-01-30T14:35:17;11.00;;;5.50;;
36137;SDS011;67787;50.074;21.904;2024-01-30T14:37:45;12.20;;;6.80;;
36137;SDS011;67787;50.074;21.904;2024-01-30T14:40:13;14.70;;;7.20;;
36137;SDS011;67787;50.074;21.904;2024-01-30T14:42:41;13.50;;;6.60;;
36137;SDS011;67787;50.074;21.904;2024-01-30T14:45:09;13.20;;;6.70;;
36137;SDS011;67787;50.074;21.904;2024-01-30T14:47:37;12.20;;;6.80;;
36137;SDS011;67787;50.074;21.904;2024-01-30T14:50:06;12.20;;;6.60;;